sensor_id;sensor_type;location;lat;lon;timestamp;temperature;humidity
66962;HTU21D;53897;51.126;5.868;2024-03-17T00:01:55;22.41;45.19
66962;HTU21D;53897;51.126;5.868;2024-03-17T00:04:21;22.40;45.20
66962;HTU21D;53897;51.126;5.868;2024-03-17T00:06:47;22.38;45.19
66962;HTU21D;53897;51.126;5.868;2024-03-17T00:09:13;22.37;45.21
66962;HTU21D;53897;51.126;5.868;2024-03-17T00:11:39;22.36;45.22
66962;HTU21D;53897;51.126;5.868;2024-03-17T00:14:05;22.35;45.19
66962;HTU21D;53897;51.126;5.868;2024-03-17T00:16:32;22.35;45.16
66962;HTU21D;53897;51.126;5.868;2024-03-17T00:18:58;22.32;45.15
66962;HTU21D;53897;51.126;5.868;2024-03-17T00:21:24;22.29;45.13
66962;HTU21D;53897;51.126;5.868;2024-03-17T00:23:51;22.29;45.11
66962;HTU21D;53897;51.126;5.868;2024-03-17T00:26:17;22.27;45.11
66962;HTU21D;53897;51.126;5.868;2024-03-17T00:28:46;22.26;45.09
66962;HTU21D;53897;51.126;5.868;2024-03-17T00:31:17;22.25;45.06
66962;HTU21D;53897;51.126;5.868;2024-03-17T00:33:43;22.23;45.05
66962;HTU21D;53897;51.126;5.868;2024-03-17T00:36:10;22.21;45.03
66962;HTU21D;53897;51.126;5.868;2024-03-17T00:38:35;22.21;44.99
66962;HTU21D;53897;51.126;5.868;2024-03-17T00:41:04;22.20;44.98
66962;HTU21D;53897;51.126;5.868;2024-03-17T00:43:30;22.17;44.99
66962;HTU21D;53897;51.126;5.868;2024-03-17T00:45:56;22.14;44.94
66962;HTU21D;53897;51.126;5.868;2024-03-17T00:48:21;22.14;44.94
66962;HTU21D;53897;51.126;5.868;2024-03-17T00:50:57;22.12;44.93
66962;HTU21D;53897;51.126;5.868;2024-03-17T00:53:24;22.12;44.90
66962;HTU21D;53897;51.126;5.868;2024-03-17T00:55:54;22.11;44.89
66962;HTU21D;53897;51.126;5.868;2024-03-17T00:58:23;22.08;44.87
66962;HTU21D;53897;51.126;5.868;2024-03-17T01:00:50;22.07;44.87
66962;HTU21D;53897;51.126;5.868;2024-03-17T01:03:16;22.06;44.86
66962;HTU21D;53897;51.126;5.868;2024-03-17T01:05:42;22.04;44.84
66962;HTU21D;53897;51.126;5.868;2024-03-17T01:08:11;22.03;44.80
66962;HTU21D;53897;51.126;5.868;2024-03-17T01:10:40;22.03;44.80
66962;HTU21D;53897;51.126;5.868;2024-03-17T01:13:07;22.01;44.76
66962;HTU21D;53897;51.126;5.868;2024-03-17T01:15:35;21.99;44.74
66962;HTU21D;53897;51.126;5.868;2024-03-17T01:18:05;21.97;44.74
66962;HTU21D;53897;51.126;5.868;2024-03-17T01:20:33;21.96;44.72
66962;HTU21D;53897;51.126;5.868;2024-03-17T01:23:00;21.95;44.71
66962;HTU21D;53897;51.126;5.868;2024-03-17T01:25:25;21.94;44.71
66962;HTU21D;53897;51.126;5.868;2024-03-17T01:27:52;21.92;44.67
66962;HTU21D;53897;51.126;5.868;2024-03-17T01:30:18;21.90;44.67
66962;HTU21D;53897;51.126;5.868;2024-03-17T01:32:47;21.90;44.67
66962;HTU21D;53897;51.126;5.868;2024-03-17T01:35:13;21.88;44.64
66962;HTU21D;53897;51.126;5.868;2024-03-17T01:37:39;21.87;44.64
66962;HTU21D;53897;51.126;5.868;2024-03-17T01:40:06;21.85;44.61
66962;HTU21D;53897;51.126;5.868;2024-03-17T01:42:36;21.84;44.56
66962;HTU21D;53897;51.126;5.868;2024-03-17T01:45:31;21.82;44.54
66962;HTU21D;53897;51.126;5.868;2024-03-17T01:47:59;21.81;44.52
66962;HTU21D;53897;51.126;5.868;2024-03-17T01:50:38;21.80;44.52
66962;HTU21D;53897;51.126;5.868;2024-03-17T01:53:06;21.80;44.48
66962;HTU21D;53897;51.126;5.868;2024-03-17T01:55:35;21.77;44.48
66962;HTU21D;53897;51.126;5.868;2024-03-17T01:58:03;21.76;44.45
66962;HTU21D;53897;51.126;5.868;2024-03-17T02:00:29;21.74;44.43
66962;HTU21D;53897;51.126;5.868;2024-03-17T02:02:57;21.72;44.42
66962;HTU21D;53897;51.126;5.868;2024-03-17T02:05:23;21.72;44.43
66962;HTU21D;53897;51.126;5.868;2024-03-17T02:07:49;21.70;44.39
66962;HTU21D;53897;51.126;5.868;2024-03-17T02:10:15;21.67;44.35
66962;HTU21D;53897;51.126;5.868;2024-03-17T02:12:41;21.68;44.31
66962;HTU21D;53897;51.126;5.868;2024-03-17T02:15:07;21.66;44.29
66962;HTU21D;53897;51.126;5.868;2024-03-17T02:17:33;21.65;44.25
66962;HTU21D;53897;51.126;5.868;2024-03-17T02:19:59;21.64;44.23
66962;HTU21D;53897;51.126;5.868;2024-03-17T02:22:26;21.63;44.22
66962;HTU21D;53897;51.126;5.868;2024-03-17T02:24:54;21.61;44.21
66962;HTU21D;53897;51.126;5.868;2024-03-17T02:27:19;21.60;44.18
66962;HTU21D;53897;51.126;5.868;2024-03-17T02:29:45;21.60;44.16
66962;HTU21D;53897;51.126;5.868;2024-03-17T02:32:11;21.58;44.16
66962;HTU21D;53897;51.126;5.868;2024-03-17T02:34:38;21.55;44.14
66962;HTU21D;53897;51.126;5.868;2024-03-17T02:37:05;21.55;44.09
66962;HTU21D;53897;51.126;5.868;2024-03-17T02:39:34;21.53;44.09
66962;HTU21D;53897;51.126;5.868;2024-03-17T02:42:04;21.52;44.08
66962;HTU21D;53897;51.126;5.868;2024-03-17T02:44:34;21.51;44.06
66962;HTU21D;53897;51.126;5.868;2024-03-17T02:47:02;21.51;44.04
66962;HTU21D;53897;51.126;5.868;2024-03-17T02:49:30;21.49;44.03
66962;HTU21D;53897;51.126;5.868;2024-03-17T02:52:06;21.47;44.02
66962;HTU21D;53897;51.126;5.868;2024-03-17T02:54:35;21.47;44.02
66962;HTU21D;53897;51.126;5.868;2024-03-17T02:57:06;21.46;43.99
66962;HTU21D;53897;51.126;5.868;2024-03-17T02:59:34;21.46;44.00
66962;HTU21D;53897;51.126;5.868;2024-03-17T03:02:00;21.43;43.94
66962;HTU21D;53897;51.126;5.868;2024-03-17T03:04:27;21.43;43.92
66962;HTU21D;53897;51.126;5.868;2024-03-17T03:06:53;21.42;43.90
66962;HTU21D;53897;51.126;5.868;2024-03-17T03:09:19;21.39;43.89
66962;HTU21D;53897;51.126;5.868;2024-03-17T03:12:02;21.39;43.90
66962;HTU21D;53897;51.126;5.868;2024-03-17T03:14:29;21.37;43.90
66962;HTU21D;53897;51.126;5.868;2024-03-17T03:16:55;21.37;43.87
66962;HTU21D;53897;51.126;5.868;2024-03-17T03:19:22;21.36;43.88
66962;HTU21D;53897;51.126;5.868;2024-03-17T03:21:47;21.35;43.87
66962;HTU21D;53897;51.126;5.868;2024-03-17T03:24:14;21.34;43.86
66962;HTU21D;53897;51.126;5.868;2024-03-17T03:26:40;21.31;43.82
66962;HTU21D;53897;51.126;5.868;2024-03-17T03:29:06;21.31;43.84
66962;HTU21D;53897;51.126;5.868;2024-03-17T03:31:32;21.31;43.84
66962;HTU21D;53897;51.126;5.868;2024-03-17T03:33:59;21.30;43.82
66962;HTU21D;53897;51.126;5.868;2024-03-17T03:36:27;21.29;43.83
66962;HTU21D;53897;51.126;5.868;2024-03-17T03:38:54;21.27;43.84
66962;HTU21D;53897;51.126;5.868;2024-03-17T03:41:22;21.25;43.82
66962;HTU21D;53897;51.126;5.868;2024-03-17T03:43:48;21.25;43.79
66962;HTU21D;53897;51.126;5.868;2024-03-17T03:46:14;21.24;43.79
66962;HTU21D;53897;51.126;5.868;2024-03-17T03:48:41;21.23;43.78
66962;HTU21D;53897;51.126;5.868;2024-03-17T03:51:07;21.23;43.78
66962;HTU21D;53897;51.126;5.868;2024-03-17T03:53:36;21.22;43.77
66962;HTU21D;53897;51.126;5.868;2024-03-17T03:56:04;21.21;43.74
66962;HTU21D;53897;51.126;5.868;2024-03-17T03:58:33;21.20;43.75
66962;HTU21D;53897;51.126;5.868;2024-03-17T04:01:06;21.18;43.76
66962;HTU21D;53897;51.126;5.868;2024-03-17T04:03:33;21.18;43.76
66962;HTU21D;53897;51.126;5.868;2024-03-17T04:08:30;21.15;43.77
66962;HTU21D;53897;51.126;5.868;2024-03-17T04:10:56;21.15;43.77
66962;HTU21D;53897;51.126;5.868;2024-03-17T04:13:22;21.13;43.79
66962;HTU21D;53897;51.126;5.868;2024-03-17T04:15:48;21.13;43.78
66962;HTU21D;53897;51.126;5.868;2024-03-17T04:18:15;21.11;43.80
66962;HTU21D;53897;51.126;5.868;2024-03-17T04:20:43;21.10;43.77
66962;HTU21D;53897;51.126;5.868;2024-03-17T04:23:09;21.08;43.74
66962;HTU21D;53897;51.126;5.868;2024-03-17T04:25:34;21.08;43.76
66962;HTU21D;53897;51.126;5.868;2024-03-17T04:28:00;21.06;43.74
66962;HTU21D;53897;51.126;5.868;2024-03-17T04:30:26;21.06;43.75
66962;HTU21D;53897;51.126;5.868;2024-03-17T04:32:52;21.05;43.79
66962;HTU21D;53897;51.126;5.868;2024-03-17T04:35:18;21.04;43.74
66962;HTU21D;53897;51.126;5.868;2024-03-17T04:37:44;21.03;43.77
66962;HTU21D;53897;51.126;5.868;2024-03-17T04:40:10;21.03;43.73
66962;HTU21D;53897;51.126;5.868;2024-03-17T04:42:36;21.02;43.74
66962;HTU21D;53897;51.126;5.868;2024-03-17T04:45:06;20.99;43.71
66962;HTU21D;53897;51.126;5.868;2024-03-17T04:47:32;20.99;43.71
66962;HTU21D;53897;51.126;5.868;2024-03-17T04:49:57;20.99;43.71
66962;HTU21D;53897;51.126;5.868;2024-03-17T04:52:23;20.96;43.68
66962;HTU21D;53897;51.126;5.868;2024-03-17T04:54:49;20.96;43.68
66962;HTU21D;53897;51.126;5.868;2024-03-17T04:57:15;20.95;43.71
66962;HTU21D;53897;51.126;5.868;2024-03-17T04:59:40;20.94;43.72
66962;HTU21D;53897;51.126;5.868;2024-03-17T05:02:06;20.93;43.68
66962;HTU21D;53897;51.126;5.868;2024-03-17T05:04:33;20.92;43.65
66962;HTU21D;53897;51.126;5.868;2024-03-17T05:06:58;20.92;43.66
66962;HTU21D;53897;51.126;5.868;2024-03-17T05:09:24;20.91;43.73
66962;HTU21D;53897;51.126;5.868;2024-03-17T05:11:50;20.89;43.74
66962;HTU21D;53897;51.126;5.868;2024-03-17T05:14:19;20.89;43.75
66962;HTU21D;53897;51.126;5.868;2024-03-17T05:16:49;20.89;43.71
66962;HTU21D;53897;51.126;5.868;2024-03-17T05:19:15;20.87;43.70
66962;HTU21D;53897;51.126;5.868;2024-03-17T05:21:44;20.87;43.73
66962;HTU21D;53897;51.126;5.868;2024-03-17T05:24:10;20.86;43.76
66962;HTU21D;53897;51.126;5.868;2024-03-17T05:26:37;20.84;43.75
66962;HTU21D;53897;51.126;5.868;2024-03-17T05:29:03;20.84;43.73
66962;HTU21D;53897;51.126;5.868;2024-03-17T05:31:29;20.84;43.75
66962;HTU21D;53897;51.126;5.868;2024-03-17T05:33:57;20.83;43.74
66962;HTU21D;53897;51.126;5.868;2024-03-17T05:36:23;20.83;43.71
66962;HTU21D;53897;51.126;5.868;2024-03-17T05:38:48;20.81;43.71
66962;HTU21D;53897;51.126;5.868;2024-03-17T05:41:14;20.80;43.69
66962;HTU21D;53897;51.126;5.868;2024-03-17T05:43:40;20.79;43.66
66962;HTU21D;53897;51.126;5.868;2024-03-17T05:46:08;20.79;43.66
66962;HTU21D;53897;51.126;5.868;2024-03-17T05:48:35;20.78;43.65
66962;HTU21D;53897;51.126;5.868;2024-03-17T05:51:07;20.79;43.66
66962;HTU21D;53897;51.126;5.868;2024-03-17T05:53:34;20.78;43.67
66962;HTU21D;53897;51.126;5.868;2024-03-17T05:56:01;20.76;43.67
66962;HTU21D;53897;51.126;5.868;2024-03-17T05:58:27;20.76;43.67
66962;HTU21D;53897;51.126;5.868;2024-03-17T06:00:53;20.75;43.64
66962;HTU21D;53897;51.126;5.868;2024-03-17T06:03:19;20.73;43.68
66962;HTU21D;53897;51.126;5.868;2024-03-17T06:05:45;20.73;43.59
66962;HTU21D;53897;51.126;5.868;2024-03-17T06:08:15;20.72;43.52
66962;HTU21D;53897;51.126;5.868;2024-03-17T06:10:46;20.70;43.58
66962;HTU21D;53897;51.126;5.868;2024-03-17T06:13:13;20.70;43.76
66962;HTU21D;53897;51.126;5.868;2024-03-17T06:15:41;20.69;43.96
66962;HTU21D;53897;51.126;5.868;2024-03-17T06:18:08;20.72;44.06
66962;HTU21D;53897;51.126;5.868;2024-03-17T06:20:40;20.74;44.16
66962;HTU21D;53897;51.126;5.868;2024-03-17T06:23:08;20.77;44.22
66962;HTU21D;53897;51.126;5.868;2024-03-17T06:28:05;20.83;44.28
66962;HTU21D;53897;51.126;5.868;2024-03-17T06:30:30;20.84;44.32
66962;HTU21D;53897;51.126;5.868;2024-03-17T06:32:58;20.86;44.38
66962;HTU21D;53897;51.126;5.868;2024-03-17T06:35:24;20.86;44.44
66962;HTU21D;53897;51.126;5.868;2024-03-17T06:37:52;20.89;44.56
66962;HTU21D;53897;51.126;5.868;2024-03-17T06:40:18;20.95;44.60
66962;HTU21D;53897;51.126;5.868;2024-03-17T06:42:44;21.00;44.64
66962;HTU21D;53897;51.126;5.868;2024-03-17T06:45:10;21.04;44.67
66962;HTU21D;53897;51.126;5.868;2024-03-17T06:47:37;21.11;44.64
66962;HTU21D;53897;51.126;5.868;2024-03-17T06:50:06;21.16;44.48
66962;HTU21D;53897;51.126;5.868;2024-03-17T06:52:36;21.22;44.42
66962;HTU21D;53897;51.126;5.868;2024-03-17T06:55:02;21.28;44.34
66962;HTU21D;53897;51.126;5.868;2024-03-17T06:57:28;21.31;44.32
66962;HTU21D;53897;51.126;5.868;2024-03-17T06:59:54;21.33;44.29
66962;HTU21D;53897;51.126;5.868;2024-03-17T07:02:19;21.35;44.26
66962;HTU21D;53897;51.126;5.868;2024-03-17T07:04:46;21.38;44.25
66962;HTU21D;53897;51.126;5.868;2024-03-17T07:07:13;21.40;44.33
66962;HTU21D;53897;51.126;5.868;2024-03-17T07:09:40;21.45;44.48
66962;HTU21D;53897;51.126;5.868;2024-03-17T07:12:10;21.48;44.63
66962;HTU21D;53897;51.126;5.868;2024-03-17T07:14:37;21.51;44.67
66962;HTU21D;53897;51.126;5.868;2024-03-17T07:17:03;21.55;44.65
66962;HTU21D;53897;51.126;5.868;2024-03-17T07:19:30;21.59;44.67
66962;HTU21D;53897;51.126;5.868;2024-03-17T07:21:57;21.63;44.67
66962;HTU21D;53897;51.126;5.868;2024-03-17T07:24:23;21.66;44.65
66962;HTU21D;53897;51.126;5.868;2024-03-17T07:26:49;21.70;44.64
66962;HTU21D;53897;51.126;5.868;2024-03-17T07:29:16;21.75;44.64
66962;HTU21D;53897;51.126;5.868;2024-03-17T07:31:42;21.78;44.61
66962;HTU21D;53897;51.126;5.868;2024-03-17T07:34:08;21.81;44.58
66962;HTU21D;53897;51.126;5.868;2024-03-17T07:36:34;21.84;44.54
66962;HTU21D;53897;51.126;5.868;2024-03-17T07:39:00;21.89;44.51
66962;HTU21D;53897;51.126;5.868;2024-03-17T07:41:27;21.91;44.46
66962;HTU21D;53897;51.126;5.868;2024-03-17T07:43:53;21.95;44.38
66962;HTU21D;53897;51.126;5.868;2024-03-17T07:46:19;21.98;44.29
66962;HTU21D;53897;51.126;5.868;2024-03-17T07:48:45;22.02;44.24
66962;HTU21D;53897;51.126;5.868;2024-03-17T07:51:14;22.05;44.18
66962;HTU21D;53897;51.126;5.868;2024-03-17T07:53:42;22.11;44.10
66962;HTU21D;53897;51.126;5.868;2024-03-17T07:56:09;22.12;44.03
66962;HTU21D;53897;51.126;5.868;2024-03-17T07:58:37;22.16;44.00
66962;HTU21D;53897;51.126;5.868;2024-03-17T08:01:06;22.18;43.95
66962;HTU21D;53897;51.126;5.868;2024-03-17T08:03:33;22.21;43.96
66962;HTU21D;53897;51.126;5.868;2024-03-17T08:06:02;22.23;43.98
66962;HTU21D;53897;51.126;5.868;2024-03-17T08:08:28;22.23;43.98
66962;HTU21D;53897;51.126;5.868;2024-03-17T08:10:54;22.26;43.98
66962;HTU21D;53897;51.126;5.868;2024-03-17T08:13:21;22.26;44.01
66962;HTU21D;53897;51.126;5.868;2024-03-17T08:15:56;22.29;44.04
66962;HTU21D;53897;51.126;5.868;2024-03-17T08:18:22;22.31;44.03
66962;HTU21D;53897;51.126;5.868;2024-03-17T08:20:48;22.33;44.02
66962;HTU21D;53897;51.126;5.868;2024-03-17T08:23:14;22.35;43.99
66962;HTU21D;53897;51.126;5.868;2024-03-17T08:25:40;22.37;43.97
66962;HTU21D;53897;51.126;5.868;2024-03-17T08:28:06;22.38;43.96
66962;HTU21D;53897;51.126;5.868;2024-03-17T08:30:34;22.41;43.94
66962;HTU21D;53897;51.126;5.868;2024-03-17T08:33:01;22.42;43.91
66962;HTU21D;53897;51.126;5.868;2024-03-17T08:35:27;22.44;43.90
66962;HTU21D;53897;51.126;5.868;2024-03-17T08:37:53;22.46;43.88
66962;HTU21D;53897;51.126;5.868;2024-03-17T08:40:22;22.48;43.82
66962;HTU21D;53897;51.126;5.868;2024-03-17T08:42:50;22.49;43.79
66962;HTU21D;53897;51.126;5.868;2024-03-17T08:45:16;22.49;43.76
66962;HTU21D;53897;51.126;5.868;2024-03-17T08:47:42;22.51;43.77
66962;HTU21D;53897;51.126;5.868;2024-03-17T08:50:08;22.54;43.76
66962;HTU21D;53897;51.126;5.868;2024-03-17T08:52:34;22.54;43.71
66962;HTU21D;53897;51.126;5.868;2024-03-17T08:55:00;22.57;43.70
66962;HTU21D;53897;51.126;5.868;2024-03-17T08:57:35;22.57;43.67
66962;HTU21D;53897;51.126;5.868;2024-03-17T09:00:01;22.60;43.60
66962;HTU21D;53897;51.126;5.868;2024-03-17T09:02:28;22.61;43.60
66962;HTU21D;53897;51.126;5.868;2024-03-17T09:04:53;22.64;43.60
66962;HTU21D;53897;51.126;5.868;2024-03-17T09:07:19;22.64;43.61
66962;HTU21D;53897;51.126;5.868;2024-03-17T09:09:48;22.65;43.39
66962;HTU21D;53897;51.126;5.868;2024-03-17T09:12:14;22.65;43.27
66962;HTU21D;53897;51.126;5.868;2024-03-17T09:14:40;22.64;43.23
66962;HTU21D;53897;51.126;5.868;2024-03-17T09:17:06;22.64;43.23
66962;HTU21D;53897;51.126;5.868;2024-03-17T09:19:32;22.64;43.30
66962;HTU21D;53897;51.126;5.868;2024-03-17T09:21:59;22.64;43.29
66962;HTU21D;53897;51.126;5.868;2024-03-17T09:24:25;22.66;43.33
66962;HTU21D;53897;51.126;5.868;2024-03-17T09:26:52;22.67;43.35
66962;HTU21D;53897;51.126;5.868;2024-03-17T09:29:18;22.68;43.34
66962;HTU21D;53897;51.126;5.868;2024-03-17T09:31:44;22.72;43.31
66962;HTU21D;53897;51.126;5.868;2024-03-17T09:34:10;22.75;43.28
66962;HTU21D;53897;51.126;5.868;2024-03-17T09:36:36;22.76;43.24
66962;HTU21D;53897;51.126;5.868;2024-03-17T09:39:02;22.77;43.22
66962;HTU21D;53897;51.126;5.868;2024-03-17T09:41:30;22.79;43.18
66962;HTU21D;53897;51.126;5.868;2024-03-17T09:43:57;22.81;43.16
66962;HTU21D;53897;51.126;5.868;2024-03-17T09:46:25;22.83;43.13
66962;HTU21D;53897;51.126;5.868;2024-03-17T09:48:52;22.85;43.13
66962;HTU21D;53897;51.126;5.868;2024-03-17T09:51:24;22.85;43.13
66962;HTU21D;53897;51.126;5.868;2024-03-17T09:53:52;22.87;43.06
66962;HTU21D;53897;51.126;5.868;2024-03-17T09:56:19;22.90;43.08
66962;HTU21D;53897;51.126;5.868;2024-03-17T09:58:50;22.90;43.08
66962;HTU21D;53897;51.126;5.868;2024-03-17T10:01:17;22.92;43.08
66962;HTU21D;53897;51.126;5.868;2024-03-17T10:03:51;22.91;43.06
66962;HTU21D;53897;51.126;5.868;2024-03-17T10:06:23;22.95;43.07
66962;HTU21D;53897;51.126;5.868;2024-03-17T10:08:54;22.94;43.06
66962;HTU21D;53897;51.126;5.868;2024-03-17T10:11:22;22.94;43.03
66962;HTU21D;53897;51.126;5.868;2024-03-17T10:14:18;22.94;42.79
66962;HTU21D;53897;51.126;5.868;2024-03-17T10:16:44;22.94;42.89
66962;HTU21D;53897;51.126;5.868;2024-03-17T10:19:25;22.93;42.91
66962;HTU21D;53897;51.126;5.868;2024-03-17T10:22:02;22.94;42.91
66962;HTU21D;53897;51.126;5.868;2024-03-17T10:24:29;22.97;42.93
66962;HTU21D;53897;51.126;5.868;2024-03-17T10:26:56;22.97;42.92
66962;HTU21D;53897;51.126;5.868;2024-03-17T10:29:34;22.98;42.90
66962;HTU21D;53897;51.126;5.868;2024-03-17T10:32:15;23.00;42.90
66962;HTU21D;53897;51.126;5.868;2024-03-17T10:34:44;23.00;42.94
66962;HTU21D;53897;51.126;5.868;2024-03-17T10:37:17;23.02;42.96
66962;HTU21D;53897;51.126;5.868;2024-03-17T10:39:46;23.01;43.00
66962;HTU21D;53897;51.126;5.868;2024-03-17T10:42:24;23.03;43.00
66962;HTU21D;53897;51.126;5.868;2024-03-17T10:44:51;23.02;43.06
66962;HTU21D;53897;51.126;5.868;2024-03-17T10:47:26;23.02;43.06
66962;HTU21D;53897;51.126;5.868;2024-03-17T10:49:54;22.99;43.11
66962;HTU21D;53897;51.126;5.868;2024-03-17T10:52:22;23.00;43.20
66962;HTU21D;53897;51.126;5.868;2024-03-17T10:54:55;23.00;43.23
66962;HTU21D;53897;51.126;5.868;2024-03-17T10:59:59;23.01;43.19
66962;HTU21D;53897;51.126;5.868;2024-03-17T11:02:28;23.00;43.22
66962;HTU21D;53897;51.126;5.868;2024-03-17T11:05:03;23.02;43.25
66962;HTU21D;53897;51.126;5.868;2024-03-17T11:07:32;23.02;43.26
66962;HTU21D;53897;51.126;5.868;2024-03-17T11:10:00;23.02;43.27
66962;HTU21D;53897;51.126;5.868;2024-03-17T11:20:37;23.01;43.34
66962;HTU21D;53897;51.126;5.868;2024-03-17T11:23:03;23.01;43.36
66962;HTU21D;53897;51.126;5.868;2024-03-17T11:28:02;22.99;43.39
66962;HTU21D;53897;51.126;5.868;2024-03-17T11:47:05;23.05;43.93
66962;HTU21D;53897;51.126;5.868;2024-03-17T11:49:37;23.06;44.16
66962;HTU21D;53897;51.126;5.868;2024-03-17T11:52:10;23.07;44.32
66962;HTU21D;53897;51.126;5.868;2024-03-17T11:54:42;23.08;44.20
66962;HTU21D;53897;51.126;5.868;2024-03-17T11:57:13;23.09;44.18
66962;HTU21D;53897;51.126;5.868;2024-03-17T11:59:40;23.10;44.16
66962;HTU21D;53897;51.126;5.868;2024-03-17T12:02:29;23.11;44.13
66962;HTU21D;53897;51.126;5.868;2024-03-17T12:05:01;23.09;44.17
66962;HTU21D;53897;51.126;5.868;2024-03-17T12:07:28;23.09;44.28
66962;HTU21D;53897;51.126;5.868;2024-03-17T12:09:55;23.10;44.35
66962;HTU21D;53897;51.126;5.868;2024-03-17T12:12:25;23.10;44.42
66962;HTU21D;53897;51.126;5.868;2024-03-17T12:14:56;23.08;44.40
66962;HTU21D;53897;51.126;5.868;2024-03-17T12:17:24;23.09;44.35
66962;HTU21D;53897;51.126;5.868;2024-03-17T12:19:51;23.10;44.35
66962;HTU21D;53897;51.126;5.868;2024-03-17T12:22:19;23.09;44.31
66962;HTU21D;53897;51.126;5.868;2024-03-17T12:24:55;23.10;44.26
66962;HTU21D;53897;51.126;5.868;2024-03-17T12:27:26;23.09;44.24
66962;HTU21D;53897;51.126;5.868;2024-03-17T12:29:53;23.10;44.25
66962;HTU21D;53897;51.126;5.868;2024-03-17T12:32:21;23.10;44.26
66962;HTU21D;53897;51.126;5.868;2024-03-17T12:37:24;23.08;44.25
66962;HTU21D;53897;51.126;5.868;2024-03-17T12:39:56;23.08;44.30
66962;HTU21D;53897;51.126;5.868;2024-03-17T12:42:26;23.07;44.35
66962;HTU21D;53897;51.126;5.868;2024-03-17T12:44:57;23.08;44.35
66962;HTU21D;53897;51.126;5.868;2024-03-17T12:47:28;23.08;44.32
66962;HTU21D;53897;51.126;5.868;2024-03-17T12:49:57;23.08;44.29
66962;HTU21D;53897;51.126;5.868;2024-03-17T12:52:28;23.08;44.27
66962;HTU21D;53897;51.126;5.868;2024-03-17T12:57:45;23.07;44.25
66962;HTU21D;53897;51.126;5.868;2024-03-17T13:00:30;23.07;44.24
66962;HTU21D;53897;51.126;5.868;2024-03-17T13:03:05;23.06;44.24
66962;HTU21D;53897;51.126;5.868;2024-03-17T13:05:35;23.06;44.27
66962;HTU21D;53897;51.126;5.868;2024-03-17T13:08:01;23.06;44.27
66962;HTU21D;53897;51.126;5.868;2024-03-17T13:10:29;23.02;44.26
66962;HTU21D;53897;51.126;5.868;2024-03-17T13:13:05;23.00;44.17
66962;HTU21D;53897;51.126;5.868;2024-03-17T13:15:33;22.98;44.25
66962;HTU21D;53897;51.126;5.868;2024-03-17T13:18:04;22.97;44.35
66962;HTU21D;53897;51.126;5.868;2024-03-17T13:20:31;22.97;44.53
66962;HTU21D;53897;51.126;5.868;2024-03-17T13:22:58;22.97;44.67
66962;HTU21D;53897;51.126;5.868;2024-03-17T13:25:31;22.98;44.64
66962;HTU21D;53897;51.126;5.868;2024-03-17T13:28:00;23.01;44.67
66962;HTU21D;53897;51.126;5.868;2024-03-17T13:30:27;23.03;44.70
66962;HTU21D;53897;51.126;5.868;2024-03-17T13:32:55;23.03;44.75
66962;HTU21D;53897;51.126;5.868;2024-03-17T13:35:26;23.07;44.80
66962;HTU21D;53897;51.126;5.868;2024-03-17T13:37:53;23.07;44.90
66962;HTU21D;53897;51.126;5.868;2024-03-17T13:40:23;23.09;45.00
66962;HTU21D;53897;51.126;5.868;2024-03-17T13:42:51;23.10;45.08
66962;HTU21D;53897;51.126;5.868;2024-03-17T13:45:19;23.12;45.13
66962;HTU21D;53897;51.126;5.868;2024-03-17T13:50:21;23.14;45.19
66962;HTU21D;53897;51.126;5.868;2024-03-17T13:52:48;23.13;45.23
66962;HTU21D;53897;51.126;5.868;2024-03-17T13:55:17;23.15;45.25
66962;HTU21D;53897;51.126;5.868;2024-03-17T13:57:44;23.14;45.29
66962;HTU21D;53897;51.126;5.868;2024-03-17T14:00:14;23.16;45.33
66962;HTU21D;53897;51.126;5.868;2024-03-17T14:02:46;23.16;45.39
66962;HTU21D;53897;51.126;5.868;2024-03-17T14:05:14;23.16;45.44
66962;HTU21D;53897;51.126;5.868;2024-03-17T14:07:40;23.14;45.39
66962;HTU21D;53897;51.126;5.868;2024-03-17T14:10:07;23.14;45.32
66962;HTU21D;53897;51.126;5.868;2024-03-17T14:12:34;23.15;45.30
66962;HTU21D;53897;51.126;5.868;2024-03-17T14:15:01;23.16;45.25
66962;HTU21D;53897;51.126;5.868;2024-03-17T14:17:28;23.17;45.19
66962;HTU21D;53897;51.126;5.868;2024-03-17T14:19:54;23.18;45.11
66962;HTU21D;53897;51.126;5.868;2024-03-17T14:22:20;23.22;45.04
66962;HTU21D;53897;51.126;5.868;2024-03-17T14:24:46;23.21;44.99
66962;HTU21D;53897;51.126;5.868;2024-03-17T14:27:13;23.23;44.95
66962;HTU21D;53897;51.126;5.868;2024-03-17T14:29:39;23.22;44.91
66962;HTU21D;53897;51.126;5.868;2024-03-17T14:32:05;23.22;44.87
66962;HTU21D;53897;51.126;5.868;2024-03-17T14:34:31;23.22;44.83
66962;HTU21D;53897;51.126;5.868;2024-03-17T14:37:01;23.23;44.79
66962;HTU21D;53897;51.126;5.868;2024-03-17T14:39:28;23.22;44.76
66962;HTU21D;53897;51.126;5.868;2024-03-17T14:41:55;23.22;44.74
66962;HTU21D;53897;51.126;5.868;2024-03-17T14:44:21;23.21;44.71
66962;HTU21D;53897;51.126;5.868;2024-03-17T14:46:48;23.21;44.67
66962;HTU21D;53897;51.126;5.868;2024-03-17T14:49:17;23.20;44.65
66962;HTU21D;53897;51.126;5.868;2024-03-17T14:51:44;23.20;44.65
66962;HTU21D;53897;51.126;5.868;2024-03-17T14:54:10;23.20;44.66
66962;HTU21D;53897;51.126;5.868;2024-03-17T14:56:36;23.21;44.65
66962;HTU21D;53897;51.126;5.868;2024-03-17T14:59:02;23.20;44.62
66962;HTU21D;53897;51.126;5.868;2024-03-17T15:01:28;23.21;44.58
66962;HTU21D;53897;51.126;5.868;2024-03-17T15:03:55;23.23;44.55
66962;HTU21D;53897;51.126;5.868;2024-03-17T15:06:22;23.22;44.53
66962;HTU21D;53897;51.126;5.868;2024-03-17T15:08:48;23.23;44.50
66962;HTU21D;53897;51.126;5.868;2024-03-17T15:11:14;23.22;44.46
66962;HTU21D;53897;51.126;5.868;2024-03-17T15:13:40;23.22;44.45
66962;HTU21D;53897;51.126;5.868;2024-03-17T15:16:08;23.22;44.46
66962;HTU21D;53897;51.126;5.868;2024-03-17T15:18:34;23.22;44.46
66962;HTU21D;53897;51.126;5.868;2024-03-17T15:21:00;23.21;44.45
66962;HTU21D;53897;51.126;5.868;2024-03-17T15:23:29;23.20;44.45
66962;HTU21D;53897;51.126;5.868;2024-03-17T15:26:01;23.21;44.42
66962;HTU21D;53897;51.126;5.868;2024-03-17T15:28:32;23.20;44.40
66962;HTU21D;53897;51.126;5.868;2024-03-17T15:30:59;23.18;44.41
66962;HTU21D;53897;51.126;5.868;2024-03-17T15:33:26;23.17;44.38
66962;HTU21D;53897;51.126;5.868;2024-03-17T15:35:52;23.17;44.29
66962;HTU21D;53897;51.126;5.868;2024-03-17T15:38:18;23.14;44.28
66962;HTU21D;53897;51.126;5.868;2024-03-17T15:40:44;23.13;44.27
66962;HTU21D;53897;51.126;5.868;2024-03-17T15:43:09;23.12;44.27
66962;HTU21D;53897;51.126;5.868;2024-03-17T15:45:35;23.11;44.25
66962;HTU21D;53897;51.126;5.868;2024-03-17T15:48:05;23.08;44.26
66962;HTU21D;53897;51.126;5.868;2024-03-17T15:50:31;23.08;44.31
66962;HTU21D;53897;51.126;5.868;2024-03-17T15:52:57;23.08;44.35
66962;HTU21D;53897;51.126;5.868;2024-03-17T15:55:22;23.10;44.35
66962;HTU21D;53897;51.126;5.868;2024-03-17T15:57:49;23.10;44.38
66962;HTU21D;53897;51.126;5.868;2024-03-17T16:00:15;23.11;44.39
66962;HTU21D;53897;51.126;5.868;2024-03-17T16:02:45;23.11;44.42